Time;durP1;ratioP1;P1;durP2;ratioP2;P2;SDS_P1;SDS_P2;PMS_P1;PMS_P2;Temp;Humidity;BMP_temperature;BMP_pressure;BME280_temperature;BME280_humidity;BME280_pressure;Samples;Min_cycle;Max_cycle;Signal;HPM_P1;HPM_P2
2023/08/17 00:00:38;;;;;;;11.93;5.47;;;;;;;25.16;100.00;96336.66;5075696;28;20025;-88
2023/08/17 00:03:04;;;;;;;7.75;6.05;;;;;;;25.38;100.00;96330.47;5061654;28;20025;-88
2023/08/17 00:05:32;;;;;;;9.40;5.43;;;;;;;25.24;100.00;96321.16;5059120;28;20047;-88
2023/08/17 00:07:59;;;;;;;7.45;5.45;;;;;;;25.28;100.00;96335.72;5057807;28;20394;-88
2023/08/17 00:10:25;;;;;;;7.80;5.90;;;;;;;25.63;100.00;96336.16;5056337;28;20033;-88
2023/08/17 00:12:51;;;;;;;9.00;5.85;;;;;;;25.71;100.00;96342.97;5072449;28;20091;-88
2023/08/17 00:15:17;;;;;;;8.32;5.38;;;;;;;25.98;100.00;96348.41;5075398;28;20486;-88
2023/08/17 00:17:42;;;;;;;7.50;5.75;;;;;;;26.05;100.00;96354.41;5076203;28;20512;-88
2023/08/17 00:20:09;;;;;;;8.88;6.18;;;;;;;25.43;100.00;96352.09;5059070;28;20025;-87
2023/08/17 00:22:35;;;;;;;9.88;5.78;;;;;;;25.34;100.00;96342.81;5059484;28;20024;-88
2023/08/17 00:25:04;;;;;;;8.07;6.05;;;;;;;25.65;100.00;96352.06;5075643;28;20042;-88
2023/08/17 00:27:32;;;;;;;8.88;5.53;;;;;;;25.99;100.00;96350.06;5070296;28;20371;-88
2023/08/17 00:29:57;;;;;;;8.00;5.82;;;;;;;26.28;100.00;96347.88;5075373;28;20016;-88
2023/08/17 00:32:25;;;;;;;8.30;6.07;;;;;;;26.27;100.00;96340.06;5057366;28;20119;-88
2023/08/17 00:34:50;;;;;;;8.80;5.95;;;;;;;26.36;100.00;96345.78;5069987;28;20467;-88
2023/08/17 00:37:35;;;;;;;7.65;5.90;;;;;;;26.23;100.00;96349.75;5055144;28;20579;-87
2023/08/17 00:40:01;;;;;;;8.20;5.53;;;;;;;26.18;100.00;96342.41;5063371;28;20024;-88
2023/08/17 00:42:27;;;;;;;9.90;5.78;;;;;;;26.25;100.00;96348.38;5080628;28;20036;-87
2023/08/17 00:44:52;;;;;;;8.80;5.88;;;;;;;26.25;100.00;96347.59;5074886;28;20498;-88
2023/08/17 00:47:29;;;;;;;7.47;5.50;;;;;;;26.12;100.00;96354.19;5075271;28;20043;-87
2023/08/17 00:49:56;;;;;;;7.05;6.13;;;;;;;26.23;100.00;96347.03;5058336;28;20037;-88
2023/08/17 00:52:22;;;;;;;9.38;5.68;;;;;;;26.29;100.00;96343.28;5057754;28;20021;-88
2023/08/17 00:54:48;;;;;;;9.05;4.82;;;;;;;26.29;100.00;96337.91;5054785;28;20032;-88
2023/08/17 00:57:14;;;;;;;6.47;4.35;;;;;;;26.31;100.00;96331.19;5046989;28;20051;-88
2023/08/17 00:59:50;;;;;;;7.00;4.30;;;;;;;26.13;100.00;96328.09;5064026;28;20056;-88
2023/08/17 01:02:17;;;;;;;7.03;4.57;;;;;;;26.22;100.00;96326.53;5047123;28;20032;-87
2023/08/17 01:04:43;;;;;;;7.10;4.82;;;;;;;26.25;100.00;96321.44;5073059;28;20107;-88
2023/08/17 01:07:08;;;;;;;10.60;5.53;;;;;;;26.34;100.00;96319.91;5057870;28;20382;-88
2023/08/17 01:09:34;;;;;;;7.63;5.72;;;;;;;26.20;100.00;96318.72;5056395;28;20043;-88
2023/08/17 01:12:17;;;;;;;6.97;4.95;;;;;;;26.02;100.00;96328.00;5073432;28;20028;-88
2023/08/17 01:15:09;;;;;;;8.43;5.88;;;;;;;25.93;100.00;96329.50;5049963;28;20059;-88
2023/08/17 01:21:22;;;;;;;8.65;6.25;;;;;;;25.63;100.00;96324.59;5073010;28;20073;-88
2023/08/17 01:23:49;;;;;;;8.25;5.28;;;;;;;25.72;100.00;96323.06;5057542;28;20486;-88
2023/08/17 01:26:15;;;;;;;8.75;5.75;;;;;;;25.84;100.00;96321.06;5057872;28;20260;-88
2023/08/17 01:28:44;;;;;;;9.32;5.05;;;;;;;25.86;100.00;96318.13;5073252;28;20043;-88
2023/08/17 01:31:45;;;;;;;8.25;5.53;;;;;;;25.81;100.00;96313.47;5049893;28;20024;-87
2023/08/17 01:34:18;;;;;;;9.23;5.97;;;;;;;25.57;100.00;96309.44;5068193;28;20041;-86
2023/08/17 01:36:51;;;;;;;6.70;5.57;;;;;;;25.79;100.00;96309.41;5052348;28;20024;-88
2023/08/17 01:39:17;;;;;;;7.05;5.30;;;;;;;25.89;100.00;96301.44;5063959;28;20056;-88
2023/08/17 01:42:00;;;;;;;9.13;6.32;;;;;;;25.51;100.00;96297.78;5053046;28;20024;-87
2023/08/17 01:44:27;;;;;;;9.40;5.57;;;;;;;25.79;100.00;96296.75;5051499;28;20309;-88
2023/08/17 01:46:53;;;;;;;7.75;5.68;;;;;;;25.83;100.00;96289.81;5071139;28;20036;-88
2023/08/17 01:49:18;;;;;;;7.45;5.18;;;;;;;25.56;100.00;96289.75;5048758;28;20085;-88
2023/08/17 01:51:44;;;;;;;6.40;5.28;;;;;;;25.38;100.00;96295.47;5070208;28;20040;-88
2023/08/17 01:54:10;;;;;;;10.57;5.60;;;;;;;25.22;100.00;96289.09;5074002;28;20044;-87
2023/08/17 01:56:35;;;;;;;7.03;5.47;;;;;;;25.41;100.00;96289.59;5069406;28;20021;-88
2023/08/17 01:59:02;;;;;;;8.50;5.97;;;;;;;24.85;100.00;96281.59;5051680;28;20024;-87
2023/08/17 02:01:28;;;;;;;7.47;5.78;;;;;;;24.66;100.00;96285.63;5052238;28;20043;-87
2023/08/17 02:03:53;;;;;;;8.00;6.13;;;;;;;25.02;100.00;96281.56;5073992;28;20475;-88
2023/08/17 02:06:19;;;;;;;7.53;5.43;;;;;;;25.08;100.00;96280.56;5056016;28;20028;-88
2023/08/17 02:08:45;;;;;;;8.43;5.40;;;;;;;25.05;100.00;96278.38;5056317;28;20029;-88
2023/08/17 02:11:11;;;;;;;7.95;5.45;;;;;;;25.25;100.00;96269.78;5056590;28;20132;-87
2023/08/17 02:13:37;;;;;;;7.05;6.10;;;;;;;25.39;100.00;96278.28;5073154;28;20367;-87
2023/08/17 02:16:04;;;;;;;7.35;5.43;;;;;;;25.29;100.00;96270.88;5070679;28;20031;-87
2023/08/17 02:18:31;;;;;;;9.27;6.05;;;;;;;25.29;100.00;96270.88;5042464;28;20517;-88
2023/08/17 02:20:57;;;;;;;7.75;5.70;;;;;;;25.11;100.00;96276.53;5056492;28;20034;-87
2023/08/17 02:23:23;;;;;;;7.10;4.93;;;;;;;25.21;100.00;96262.44;5072940;28;20127;-88
2023/08/17 02:25:48;;;;;;;8.00;5.28;;;;;;;25.14;100.00;96268.81;5056065;28;20497;-87
2023/08/17 02:28:14;;;;;;;9.65;5.32;;;;;;;25.29;100.00;96265.50;5056610;28;20058;-87
2023/08/17 02:30:39;;;;;;;12.48;5.82;;;;;;;25.02;100.00;96270.00;5056407;28;20024;-87
2023/08/17 02:33:05;;;;;;;7.47;5.15;;;;;;;25.05;100.00;96264.94;5068168;28;20109;-87
2023/08/17 02:35:31;;;;;;;9.38;5.53;;;;;;;25.01;100.00;96258.38;5056197;28;20504;-87
2023/08/17 02:37:56;;;;;;;10.23;5.70;;;;;;;25.18;100.00;96252.97;5056026;28;20029;-87
2023/08/17 02:40:22;;;;;;;7.88;5.40;;;;;;;25.05;100.00;96259.53;5056450;28;20029;-88
2023/08/17 02:42:47;;;;;;;8.05;4.88;;;;;;;25.01;100.00;96255.69;5044598;28;20024;-87
2023/08/17 02:45:14;;;;;;;8.82;5.25;;;;;;;25.08;100.00;96256.34;5072606;28;20033;-87
2023/08/17 02:47:40;;;;;;;9.18;6.40;;;;;;;24.73;100.00;96255.88;5052622;28;20035;-87
2023/08/17 02:50:06;;;;;;;7.78;5.43;;;;;;;24.98;100.00;96256.19;5063713;28;20706;-86
2023/08/17 02:52:34;;;;;;;7.22;5.50;;;;;;;25.00;100.00;96245.19;5062910;28;20032;-87
2023/08/17 02:54:59;;;;;;;7.50;5.70;;;;;;;25.05;100.00;96237.19;5073737;28;20496;-87
2023/08/17 02:57:25;;;;;;;8.25;6.10;;;;;;;24.49;100.00;96237.28;5055917;28;20390;-87
2023/08/17 02:59:51;;;;;;;11.40;5.55;;;;;;;24.77;100.00;96239.00;5052246;28;20016;-87
2023/08/17 03:02:16;;;;;;;9.57;6.05;;;;;;;24.90;100.00;96248.56;5070162;28;20528;-87
2023/08/17 03:04:42;;;;;;;8.32;4.97;;;;;;;24.84;100.00;96252.25;5071967;28;20031;-87
2023/08/17 03:07:08;;;;;;;7.43;4.78;;;;;;;24.94;100.00;96244.31;5071731;28;20023;-87
2023/08/17 03:09:33;;;;;;;7.88;4.40;;;;;;;24.74;100.00;96255.63;5035717;28;20024;-87
2023/08/17 03:11:59;;;;;;;7.22;4.78;;;;;;;24.77;100.00;96252.44;5055854;28;20027;-87
2023/08/17 03:14:24;;;;;;;6.35;4.18;;;;;;;24.87;100.00;96254.44;5052417;28;20479;-87
2023/08/17 03:16:53;;;;;;;6.60;4.72;;;;;;;24.68;100.00;96251.22;5055686;28;20024;-87
2023/08/17 03:19:25;;;;;;;5.57;3.97;;;;;;;24.73;100.00;96251.31;5058477;28;20028;-86
2023/08/17 03:21:50;;;;;;;9.43;5.25;;;;;;;24.68;100.00;96246.69;5059271;28;20390;-88
2023/08/17 03:24:16;;;;;;;6.93;4.18;;;;;;;24.01;100.00;96252.09;5068900;28;20028;-88
2023/08/17 03:26:41;;;;;;;5.60;4.05;;;;;;;24.32;100.00;96249.91;5055493;28;20031;-87
2023/08/17 03:29:09;;;;;;;7.97;4.82;;;;;;;24.49;100.00;96249.91;5059532;28;20025;-88
2023/08/17 03:31:35;;;;;;;10.63;5.57;;;;;;;24.41;100.00;96249.28;5076612;28;20028;-87
2023/08/17 03:34:01;;;;;;;11.32;6.20;;;;;;;24.33;100.00;96244.25;5074854;28;20119;-88
2023/08/17 03:36:28;;;;;;;23.60;5.70;;;;;;;24.28;100.00;96240.66;5059389;28;20044;-87
2023/08/17 03:38:53;;;;;;;8.88;5.07;;;;;;;24.30;100.00;96243.94;5060019;28;20069;-87
2023/08/17 03:41:19;;;;;;;6.93;4.55;;;;;;;24.30;100.00;96243.94;5079972;28;20021;-86
2023/08/17 03:43:44;;;;;;;5.70;4.07;;;;;;;24.38;100.00;96244.34;5064136;28;20028;-87
2023/08/17 03:46:10;;;;;;;5.90;3.70;;;;;;;24.30;100.00;96241.25;5055642;28;20036;-88
2023/08/17 03:48:36;;;;;;;5.53;3.72;;;;;;;24.31;100.00;96256.31;5041902;28;20093;-88
2023/08/17 03:51:01;;;;;;;5.47;3.75;;;;;;;24.43;100.00;96257.06;5059988;28;20016;-88
2023/08/17 03:53:27;;;;;;;8.00;3.83;;;;;;;24.08;100.00;96250.06;5076283;28;20055;-88
2023/08/17 03:55:52;;;;;;;5.50;3.50;;;;;;;24.30;100.00;96260.06;5077282;28;20108;-88
2023/08/17 03:58:18;;;;;;;90.65;6.10;;;;;;;24.15;100.00;96261.47;5054955;28;20020;-88
2023/08/17 04:00:53;;;;;;;63.83;6.22;;;;;;;24.07;100.00;96259.16;5059667;28;20024;-88
2023/08/17 04:03:25;;;;;;;21.45;4.63;;;;;;;24.08;100.00;96259.97;5060024;28;20029;-88
2023/08/17 04:05:50;;;;;;;4.25;3.25;;;;;;;23.98;100.00;96266.03;5070302;28;20072;-88
2023/08/17 04:08:16;;;;;;;5.03;3.17;;;;;;;24.10;100.00;96269.41;5053096;28;20029;-88
2023/08/17 04:10:41;;;;;;;9.38;3.78;;;;;;;24.03;100.00;96273.34;5053732;28;20115;-88
2023/08/17 04:13:09;;;;;;;17.38;4.05;;;;;;;24.21;100.00;96275.78;5057251;28;20036;-88
2023/08/17 04:15:35;;;;;;;10.23;3.17;;;;;;;24.30;100.00;96276.19;5061203;28;20017;-87
2023/08/17 04:18:00;;;;;;;4.15;3.00;;;;;;;24.22;100.00;96282.78;5081929;28;20368;-89
2023/08/17 04:20:26;;;;;;;104.43;7.97;;;;;;;24.14;100.00;96273.25;5056784;28;20033;-84
2023/08/17 04:22:52;;;;;;;118.35;7.25;;;;;;;23.95;100.00;96280.75;5059684;28;20074;-85
2023/08/17 04:25:18;;;;;;;174.27;9.52;;;;;;;23.71;100.00;96277.38;5076114;28;20033;-85
2023/08/17 04:27:44;;;;;;;86.97;7.00;;;;;;;23.86;100.00;96278.69;5057926;28;20021;-85
2023/08/17 04:30:10;;;;;;;20.25;3.75;;;;;;;23.83;100.00;96289.91;5064239;28;20085;-85
2023/08/17 04:32:51;;;;;;;32.88;4.75;;;;;;;23.79;100.00;96286.09;5059197;28;20056;-85
2023/08/17 04:35:55;;;;;;;16.20;3.92;;;;;;;23.62;100.00;96284.16;5073820;28;20055;-85
2023/08/17 04:38:21;;;;;;;8.60;4.55;;;;;;;23.65;100.00;96278.31;5068077;28;20029;-85
2023/08/17 04:40:47;;;;;;;4.95;4.18;;;;;;;23.54;100.00;96279.19;5055973;28;20028;-84
2023/08/17 04:43:13;;;;;;;6.20;4.38;;;;;;;23.67;100.00;96283.41;5067574;28;20086;-85
2023/08/17 04:45:39;;;;;;;7.18;5.10;;;;;;;23.78;100.00;96290.66;5069300;28;20024;-85
2023/08/17 04:48:40;;;;;;;6.72;4.95;;;;;;;23.94;100.00;96286.34;5058290;28;20024;-85
2023/08/17 04:51:06;;;;;;;7.40;5.43;;;;;;;24.06;100.00;96283.59;5065604;28;20021;-85
2023/08/17 04:53:31;;;;;;;8.02;5.72;;;;;;;24.27;100.00;96288.22;5074463;28;20062;-85
2023/08/17 04:55:59;;;;;;;6.95;5.10;;;;;;;24.13;100.00;96295.81;5075074;28;20381;-86
2023/08/17 04:58:26;;;;;;;7.97;5.20;;;;;;;24.22;100.00;96298.91;5057126;28;20035;-85
2023/08/17 05:00:52;;;;;;;8.25;5.30;;;;;;;24.31;100.00;96300.16;5051814;28;20027;-85
2023/08/17 05:03:18;;;;;;;8.48;5.95;;;;;;;24.07;100.00;96301.34;5049759;28;20024;-85
2023/08/17 05:05:43;;;;;;;8.63;5.55;;;;;;;24.26;100.00;96297.38;5054218;28;20017;-85
2023/08/17 05:08:10;;;;;;;8.43;4.88;;;;;;;24.63;100.00;96291.50;5056832;28;20016;-85
2023/08/17 05:10:36;;;;;;;8.48;6.47;;;;;;;24.67;100.00;96290.75;5057458;28;20422;-85
2023/08/17 05:13:06;;;;;;;7.95;6.63;;;;;;;24.90;100.00;96294.31;5057454;28;20032;-85
2023/08/17 05:15:31;;;;;;;8.57;6.10;;;;;;;25.22;100.00;96289.09;5070386;28;20013;-85
2023/08/17 05:17:58;;;;;;;10.38;6.38;;;;;;;25.44;100.00;96277.50;5055989;28;20028;-85
2023/08/17 05:24:04;;;;;;;5.35;3.92;;;;;;;26.00;100.00;96283.50;5070098;28;20089;-85
2023/08/17 05:26:30;;;;;;;4.20;2.72;;;;;;;26.06;100.00;96283.28;5053955;28;20025;-85
2023/08/17 05:28:56;;;;;;;4.40;3.15;;;;;;;26.21;100.00;96279.09;5074320;28;20052;-85
2023/08/17 05:31:24;;;;;;;5.95;3.03;;;;;;;26.27;100.00;96281.56;5064840;28;20031;-85
2023/08/17 05:33:51;;;;;;;7.22;5.38;;;;;;;26.62;100.00;96279.41;5061898;28;20037;-84
2023/08/17 05:36:36;;;;;;;8.82;5.13;;;;;;;26.68;100.00;96273.78;5060045;28;20039;-86
2023/08/17 05:39:02;;;;;;;7.90;5.60;;;;;;;26.54;100.00;96289.59;5054001;28;20024;-87
2023/08/17 05:41:28;;;;;;;7.05;4.03;;;;;;;26.51;100.00;96282.03;5073258;28;20119;-87
2023/08/17 05:43:54;;;;;;;5.38;3.20;;;;;;;26.63;100.00;96289.13;5068996;28;20016;-87
2023/08/17 05:46:19;;;;;;;4.07;2.80;;;;;;;27.00;100.00;96289.88;5050678;28;20031;-87
2023/08/17 05:48:46;;;;;;;4.90;3.30;;;;;;;26.64;100.00;96290.75;5060467;28;20147;-87
2023/08/17 05:51:11;;;;;;;6.18;3.00;;;;;;;26.72;100.00;96287.56;5083457;28;20023;-87
2023/08/17 05:53:37;;;;;;;7.32;3.60;;;;;;;26.57;100.00;96290.97;5074550;28;20032;-87
2023/08/17 05:56:03;;;;;;;4.07;2.80;;;;;;;27.55;100.00;96286.91;5074876;28;20028;-88
2023/08/17 05:58:28;;;;;;;4.15;2.63;;;;;;;27.62;100.00;96280.16;5055247;28;20077;-88
2023/08/17 06:00:54;;;;;;;5.47;2.88;;;;;;;27.99;100.00;96283.75;5068007;28;20036;-88
2023/08/17 06:03:19;;;;;;;5.72;3.30;;;;;;;27.37;100.00;96288.19;5077224;28;20040;-89
2023/08/17 06:05:53;;;;;;;3.97;2.97;;;;;;;27.78;100.00;96291.84;5057144;28;20028;-88
2023/08/17 06:08:18;;;;;;;3.55;2.45;;;;;;;28.00;100.00;96280.78;5074046;28;20020;-90
2023/08/17 06:10:44;;;;;;;3.47;2.42;;;;;;;28.67;100.00;96281.59;5057181;28;20394;-88
2023/08/17 06:13:09;;;;;;;4.72;2.03;;;;;;;29.19;100.00;96279.63;5068651;28;20025;-86
2023/08/17 06:15:35;;;;;;;3.97;2.38;;;;;;;28.86;100.00;96282.66;5056556;28;20050;-87
2023/08/17 06:18:00;;;;;;;4.22;2.90;;;;;;;29.37;100.00;96282.50;5074365;28;20142;-86
2023/08/17 06:20:26;;;;;;;2.63;1.98;;;;;;;29.12;100.00;96288.03;5073295;28;20394;-87
2023/08/17 06:22:52;;;;;;;4.22;2.70;;;;;;;29.30;100.00;96289.31;5074503;28;20020;-87
2023/08/17 06:25:17;;;;;;;3.65;2.10;;;;;;;29.80;100.00;96288.25;5073374;28;20024;-87
2023/08/17 06:27:44;;;;;;;3.33;2.35;;;;;;;29.78;100.00;96287.75;5073383;28;20059;-87
2023/08/17 06:30:15;;;;;;;3.83;2.67;;;;;;;30.22;100.00;96286.13;5067132;28;20701;-85
2023/08/17 06:32:41;;;;;;;4.97;3.45;;;;;;;29.73;100.00;96295.09;5051789;28;20673;-86
2023/08/17 06:35:07;;;;;;;4.72;3.33;;;;;;;29.64;100.00;96303.00;5057596;28;20035;-85
2023/08/17 06:37:33;;;;;;;4.15;2.88;;;;;;;30.36;100.00;96291.72;5077854;28;20016;-85
2023/08/17 06:39:58;;;;;;;5.00;3.10;;;;;;;30.02;100.00;96295.19;5053693;28;20029;-86
2023/08/17 06:42:24;;;;;;;4.95;3.40;;;;;;;30.82;100.00;96297.56;5072715;28;20029;-87
2023/08/17 06:44:49;;;;;;;4.65;3.00;;;;;;;31.12;100.00;96282.00;5067031;28;20020;-85
2023/08/17 06:47:15;;;;;;;5.38;2.90;;;;;;;30.87;100.00;96286.63;5052194;28;20025;-86
2023/08/17 06:49:40;;;;;;;6.88;3.08;;;;;;;30.67;100.00;96287.59;5072040;28;20133;-83
2023/08/17 06:52:06;;;;;;;4.82;2.85;;;;;;;31.89;100.00;96284.59;5071716;28;20552;-84
2023/08/17 06:54:32;;;;;;;5.13;3.33;;;;;;;31.16;100.00;96283.88;5071468;28;20028;-83
2023/08/17 06:56:58;;;;;;;4.68;3.58;;;;;;;31.48;100.00;96290.56;5054893;28;20024;-84
2023/08/17 06:59:24;;;;;;;5.47;3.70;;;;;;;31.68;100.00;96295.72;5053735;28;20127;-84
2023/08/17 07:01:50;;;;;;;4.70;3.42;;;;;;;31.99;100.00;96291.78;5067562;28;20090;-82
2023/08/17 07:04:16;;;;;;;5.00;3.35;;;;;;;32.32;100.00;96295.38;5054157;28;20027;-82
2023/08/17 07:06:41;;;;;;;4.93;3.67;;;;;;;32.53;100.00;96298.59;5072414;28;20355;-82
2023/08/17 07:09:07;;;;;;;8.85;4.85;;;;;;;32.56;100.00;96304.25;5071079;28;20021;-83
2023/08/17 07:11:32;;;;;;;4.93;3.00;;;;;;;33.00;100.00;96302.13;5068800;28;20031;-83
2023/08/17 07:13:58;;;;;;;8.73;4.50;;;;;;;32.83;100.00;96300.78;5082506;28;20024;-83
2023/08/17 07:16:24;;;;;;;8.85;4.10;;;;;;;32.74;99.06;96299.06;5071681;28;20028;-83
2023/08/17 07:18:49;;;;;;;6.22;4.10;;;;;;;32.98;100.00;96297.00;5062921;28;20025;-83
2023/08/17 07:21:15;;;;;;;6.95;3.92;;;;;;;33.75;95.68;96306.38;5070693;28;20020;-83
2023/08/17 07:23:44;;;;;;;4.28;3.20;;;;;;;34.13;88.79;96303.38;5070953;28;20553;-83
2023/08/17 07:26:10;;;;;;;5.32;3.33;;;;;;;34.37;91.10;96297.59;5069537;28;20025;-83
2023/08/17 07:28:35;;;;;;;4.13;3.10;;;;;;;34.32;87.91;96298.53;5066986;28;20406;-83
2023/08/17 07:31:01;;;;;;;6.38;3.70;;;;;;;35.00;86.71;96295.75;5067693;28;20078;-83
2023/08/17 07:33:27;;;;;;;4.93;3.80;;;;;;;34.73;87.63;96303.00;5068709;28;20035;-83
2023/08/17 07:35:54;;;;;;;8.85;3.90;;;;;;;34.96;83.64;96303.78;5070821;28;20024;-83
2023/08/17 07:38:19;;;;;;;7.85;3.85;;;;;;;36.17;82.90;96305.25;5069066;28;20584;-83
2023/08/17 07:40:45;;;;;;;6.00;4.00;;;;;;;36.08;81.61;96308.00;5069118;28;20016;-83
2023/08/17 07:43:11;;;;;;;6.95;3.88;;;;;;;35.91;79.70;96307.94;5068695;28;20688;-83
2023/08/17 07:45:36;;;;;;;7.53;4.13;;;;;;;36.68;76.59;96304.41;5049835;28;20028;-84
2023/08/17 07:48:02;;;;;;;6.60;4.68;;;;;;;36.83;74.02;96299.56;5064329;28;20021;-83
2023/08/17 07:50:27;;;;;;;5.03;3.50;;;;;;;36.39;75.30;96298.78;5050518;28;20017;-82
2023/08/17 07:52:53;;;;;;;6.90;4.57;;;;;;;36.50;74.25;96300.13;5050130;28;20048;-83
2023/08/17 07:55:28;;;;;;;5.05;3.67;;;;;;;37.55;74.32;96297.84;5058855;28;20043;-83
2023/08/17 07:57:53;;;;;;;5.82;3.65;;;;;;;37.27;68.50;96301.03;5053473;28;20025;-83
2023/08/17 08:00:19;;;;;;;6.47;3.97;;;;;;;37.82;64.99;96288.31;5059507;28;20039;-83
2023/08/17 08:02:46;;;;;;;6.10;3.92;;;;;;;37.82;67.77;96293.81;5055331;28;20020;-84
2023/08/17 08:05:14;;;;;;;5.88;3.78;;;;;;;38.16;61.97;96293.59;5062945;28;20115;-83
2023/08/17 08:07:39;;;;;;;8.93;4.20;;;;;;;38.10;63.49;96297.66;5071209;28;20023;-83
2023/08/17 08:10:12;;;;;;;7.93;4.32;;;;;;;38.50;60.67;96294.44;5062334;28;20468;-84
2023/08/17 08:12:45;;;;;;;7.50;4.40;;;;;;;39.36;63.61;96286.38;5069270;28;20044;-83
2023/08/17 08:15:11;;;;;;;4.90;3.72;;;;;;;38.76;61.00;96285.91;5070089;28;20020;-84
2023/08/17 08:17:37;;;;;;;7.28;4.15;;;;;;;38.73;57.67;96286.56;5065178;28;20025;-84
2023/08/17 08:20:04;;;;;;;6.35;4.22;;;;;;;37.47;62.36;96285.81;5070173;28;20028;-83
2023/08/17 08:22:35;;;;;;;5.95;4.00;;;;;;;37.26;67.15;96280.25;5048334;28;20035;-83
2023/08/17 08:25:01;;;;;;;5.35;4.25;;;;;;;36.77;69.94;96290.72;5052897;28;20043;-83
2023/08/17 08:27:27;;;;;;;5.57;4.05;;;;;;;38.18;67.52;96288.53;5066879;28;20714;-83
2023/08/17 08:30:01;;;;;;;6.75;4.35;;;;;;;38.29;62.60;96282.63;5054469;28;20032;-83
2023/08/17 08:32:31;;;;;;;6.63;3.75;;;;;;;38.98;60.68;96287.47;5070766;28;20532;-83
2023/08/17 08:34:56;;;;;;;9.88;5.28;;;;;;;38.43;61.43;96283.16;5067594;28;20028;-83
2023/08/17 08:37:22;;;;;;;9.23;5.65;;;;;;;37.74;61.54;96277.06;5055293;28;20017;-83
2023/08/17 08:39:50;;;;;;;7.13;5.25;;;;;;;38.56;58.99;96270.28;5052138;28;20040;-83
2023/08/17 08:42:16;;;;;;;7.45;5.32;;;;;;;38.24;62.08;96280.09;5072560;28;20012;-83
2023/08/17 08:44:41;;;;;;;11.05;6.05;;;;;;;38.08;60.01;96277.97;5056568;28;20116;-83
2023/08/17 08:47:35;;;;;;;6.72;5.07;;;;;;;38.91;59.63;96281.72;5063892;28;20418;-83
2023/08/17 08:50:03;;;;;;;7.43;5.25;;;;;;;38.72;58.62;96284.19;5071963;28;20058;-84
2023/08/17 08:52:40;;;;;;;6.90;5.72;;;;;;;39.36;57.17;96281.66;5069579;28;20419;-84
2023/08/17 08:55:18;;;;;;;6.82;5.32;;;;;;;38.58;61.74;96282.53;5072794;28;20032;-84
2023/08/17 08:57:44;;;;;;;6.05;4.65;;;;;;;40.15;56.06;96286.88;5068185;28;20099;-83
2023/08/17 09:00:11;;;;;;;9.45;5.53;;;;;;;39.04;58.89;96280.59;5072802;28;20024;-83
2023/08/17 09:02:46;;;;;;;7.00;5.10;;;;;;;38.94;59.72;96286.56;5070210;28;20407;-83
2023/08/17 09:05:13;;;;;;;9.07;6.22;;;;;;;38.00;61.93;96284.34;5061765;28;20111;-83
2023/08/17 09:07:40;;;;;;;7.05;6.05;;;;;;;37.75;64.65;96284.16;5072432;28;20387;-83
2023/08/17 09:10:07;;;;;;;9.30;5.93;;;;;;;37.80;65.04;96279.63;5068914;28;20054;-83
2023/08/17 09:12:32;;;;;;;9.93;5.75;;;;;;;38.22;64.18;96283.97;5065639;28;20024;-83
2023/08/17 09:14:58;;;;;;;9.43;5.80;;;;;;;38.99;59.68;96280.81;5049735;28;20352;-83
2023/08/17 09:17:25;;;;;;;9.07;6.28;;;;;;;39.07;56.88;96279.09;5065583;28;20032;-83
2023/08/17 09:19:51;;;;;;;7.28;6.00;;;;;;;39.33;57.63;96278.78;5052581;28;20045;-83
2023/08/17 09:22:42;;;;;;;7.32;5.32;;;;;;;39.02;54.41;96282.09;5068627;28;20063;-83
2023/08/17 09:25:09;;;;;;;8.25;5.55;;;;;;;39.43;54.89;96280.28;5064942;28;20030;-85
2023/08/17 09:27:37;;;;;;;8.40;6.53;;;;;;;38.60;56.38;96276.69;5066934;28;20021;-85
2023/08/17 09:30:08;;;;;;;9.15;6.05;;;;;;;40.39;53.85;96280.44;5071253;28;20048;-85
2023/08/17 09:32:34;;;;;;;6.85;5.78;;;;;;;40.79;50.30;96276.81;5056422;28;20032;-84
2023/08/17 09:35:06;;;;;;;7.68;5.03;;;;;;;40.22;52.33;96280.75;5065981;28;20017;-85
2023/08/17 09:37:33;;;;;;;6.32;4.85;;;;;;;40.77;51.93;96273.63;5054245;28;20024;-86
2023/08/17 09:39:58;;;;;;;6.65;5.20;;;;;;;42.03;49.89;96271.94;5068237;28;20024;-84
2023/08/17 09:42:25;;;;;;;10.85;5.85;;;;;;;41.58;51.01;96270.50;5045311;28;20493;-85
2023/08/17 09:44:52;;;;;;;9.50;8.00;;;;;;;40.78;52.29;96274.41;5065117;28;20490;-84
2023/08/17 09:47:18;;;;;;;8.70;6.22;;;;;;;40.50;51.94;96284.28;5073702;28;20102;-84
2023/08/17 09:49:52;;;;;;;7.30;5.15;;;;;;;41.84;50.71;96269.91;5056016;28;20040;-83
2023/08/17 09:52:22;;;;;;;7.85;5.82;;;;;;;41.21;49.32;96279.06;5059257;28;20070;-88
2023/08/17 09:54:48;;;;;;;8.68;6.30;;;;;;;40.19;52.82;96274.00;5045248;28;20025;-85
2023/08/17 09:57:14;;;;;;;6.50;5.32;;;;;;;39.89;53.18;96270.72;5060470;28;20104;-85
2023/08/17 09:59:40;;;;;;;7.45;6.30;;;;;;;39.99;53.87;96273.00;5074211;28;20031;-85
2023/08/17 10:02:33;;;;;;;7.80;5.95;;;;;;;39.86;54.81;96265.13;5059165;28;20043;-85
2023/08/17 10:05:00;;;;;;;7.88;5.78;;;;;;;40.17;56.53;96269.97;5051278;28;20066;-85
2023/08/17 10:07:31;;;;;;;8.15;5.28;;;;;;;41.53;52.96;96265.28;5067242;28;20048;-84
2023/08/17 10:10:01;;;;;;;8.25;7.45;;;;;;;40.32;52.38;96263.72;5061702;28;20183;-85
2023/08/17 10:12:32;;;;;;;15.80;10.10;;;;;;;40.78;51.32;96263.38;5072193;28;20025;-88
2023/08/17 10:15:03;;;;;;;8.18;6.60;;;;;;;39.51;55.56;96260.91;5056114;28;20009;-86
2023/08/17 10:17:34;;;;;;;7.40;6.13;;;;;;;39.93;54.79;96259.81;5053618;28;20441;-89
2023/08/17 10:20:34;;;;;;;12.77;6.60;;;;;;;40.30;52.15;96260.50;5056854;28;20020;-87
2023/08/17 10:23:14;;;;;;;8.77;6.88;;;;;;;40.22;51.60;96256.75;5072505;28;20078;-86
2023/08/17 10:25:41;;;;;;;7.57;6.18;;;;;;;40.95;48.97;96263.84;5072994;28;20021;-87
2023/08/17 10:28:09;;;;;;;8.23;7.05;;;;;;;41.55;49.17;96254.66;5072393;28;20032;-85
2023/08/17 10:30:36;;;;;;;6.68;5.63;;;;;;;42.75;46.93;96263.09;5065607;28;20505;-86
2023/08/17 10:33:03;;;;;;;9.52;6.55;;;;;;;40.16;49.65;96258.16;5052740;28;20032;-85
2023/08/17 10:35:30;;;;;;;8.20;6.13;;;;;;;40.75;50.87;96251.94;5055349;28;20021;-86
2023/08/17 10:37:57;;;;;;;8.48;6.07;;;;;;;41.49;51.95;96253.38;5071508;28;20025;-86
2023/08/17 10:40:27;;;;;;;8.25;6.10;;;;;;;38.24;57.68;96258.13;5073035;28;20031;-85
2023/08/17 10:42:57;;;;;;;10.20;7.65;;;;;;;38.71;56.82;96252.34;5049969;28;20047;-86
2023/08/17 10:45:28;;;;;;;11.68;6.72;;;;;;;39.05;62.24;96249.19;5065889;28;20020;-85
2023/08/17 10:48:00;;;;;;;7.63;6.30;;;;;;;38.83;61.02;96242.19;5067966;28;20029;-86
2023/08/17 10:50:26;;;;;;;9.70;7.05;;;;;;;38.96;62.54;96255.94;5052900;28;20099;-86
2023/08/17 10:52:53;;;;;;;9.50;6.93;;;;;;;40.17;56.39;96254.25;5050971;28;20429;-85
2023/08/17 10:55:36;;;;;;;8.50;6.47;;;;;;;41.39;54.38;96247.19;5070008;28;20470;-86
2023/08/17 10:58:01;;;;;;;10.18;6.32;;;;;;;41.53;51.08;96245.97;5058712;28;20073;-86
2023/08/17 11:00:34;;;;;;;8.10;6.45;;;;;;;40.30;51.87;96260.50;5045803;28;20025;-86
2023/08/17 11:03:10;;;;;;;10.48;6.50;;;;;;;40.38;53.03;96254.06;5054221;28;20019;-86
2023/08/17 11:05:52;;;;;;;7.50;5.90;;;;;;;40.73;49.47;96248.72;5060084;28;20036;-87
2023/08/17 11:08:20;;;;;;;7.15;6.20;;;;;;;41.37;46.35;96245.94;5056276;28;20021;-86
2023/08/17 11:11:06;;;;;;;7.70;6.47;;;;;;;41.40;47.86;96243.28;5065946;28;20446;-86
2023/08/17 11:13:34;;;;;;;7.85;6.38;;;;;;;40.20;48.05;96247.25;5072307;28;20027;-86
2023/08/17 11:16:01;;;;;;;8.05;6.15;;;;;;;40.43;50.13;96244.72;5051850;28;20032;-85
2023/08/17 11:18:27;;;;;;;8.82;6.95;;;;;;;40.91;51.95;96240.09;5054508;28;20027;-86
2023/08/17 11:20:54;;;;;;;8.60;6.10;;;;;;;41.15;49.74;96230.84;5047262;28;20021;-85
2023/08/17 11:23:22;;;;;;;8.95;6.10;;;;;;;41.53;46.18;96229.41;5067826;28;20024;-86
2023/08/17 11:25:47;;;;;;;8.68;6.57;;;;;;;40.79;47.04;96229.94;5068612;28;20028;-86
2023/08/17 11:28:14;;;;;;;7.15;6.00;;;;;;;41.87;45.05;96228.59;5066404;28;20027;-85
2023/08/17 11:31:09;;;;;;;8.90;6.57;;;;;;;41.34;45.69;96221.84;5073217;28;20027;-86
2023/08/17 11:33:37;;;;;;;9.40;6.22;;;;;;;40.52;48.92;96226.88;5044498;28;20484;-87
2023/08/17 11:36:05;;;;;;;8.30;6.40;;;;;;;41.55;45.81;96218.78;5067822;28;20028;-87
2023/08/17 11:38:35;;;;;;;8.35;6.32;;;;;;;41.88;45.56;96223.84;5051793;28;20028;-86